sensor_id;sensor_type;location;lat;lon;timestamp;P1;durP1;ratioP1;P2;durP2;ratioP2
8399;SDS011;4237;47.030;15.396;2022-09-09T00:00:19;0.90;;;0.60;;
8399;SDS011;4237;47.030;15.396;2022-09-09T00:02:45;1.40;;;0.80;;
8399;SDS011;4237;47.030;15.396;2022-09-09T00:05:20;1.00;;;0.40;;
8399;SDS011;4237;47.030;15.396;2022-09-09T00:07:53;3.00;;;0.70;;
8399;SDS011;4237;47.030;15.396;2022-09-09T00:10:25;1.40;;;0.50;;
8399;SDS011;4237;47.030;15.396;2022-09-09T00:12:57;1.93;;;0.50;;
8399;SDS011;4237;47.030;15.396;2022-09-09T00:15:33;1.13;;;0.93;;
8399;SDS011;4237;47.030;15.396;2022-09-09T00:18:05;6.43;;;0.73;;
8399;SDS011;4237;47.030;15.396;2022-09-09T00:20:39;0.80;;;0.80;;
8399;SDS011;4237;47.030;15.396;2022-09-09T00:23:10;1.20;;;0.53;;
8399;SDS011;4237;47.030;15.396;2022-09-09T00:25:46;1.33;;;0.63;;
8399;SDS011;4237;47.030;15.396;2022-09-09T00:28:16;3.97;;;0.90;;
8399;SDS011;4237;47.030;15.396;2022-09-09T00:30:38;2.57;;;0.90;;
8399;SDS011;4237;47.030;15.396;2022-09-09T00:33:13;1.03;;;0.67;;
8399;SDS011;4237;47.030;15.396;2022-09-09T00:35:40;2.30;;;0.80;;
8399;SDS011;4237;47.030;15.396;2022-09-09T00:38:14;2.43;;;0.73;;
8399;SDS011;4237;47.030;15.396;2022-09-09T00:40:45;2.17;;;0.70;;
8399;SDS011;4237;47.030;15.396;2022-09-09T00:45:59;0.80;;;0.77;;
8399;SDS011;4237;47.030;15.396;2022-09-09T00:48:29;1.77;;;1.00;;
8399;SDS011;4237;47.030;15.396;2022-09-09T00:50:59;3.80;;;0.87;;
8399;SDS011;4237;47.030;15.396;2022-09-09T00:53:31;1.70;;;1.10;;
8399;SDS011;4237;47.030;15.396;2022-09-09T00:56:06;8.27;;;0.90;;
8399;SDS011;4237;47.030;15.396;2022-09-09T00:58:27;1.67;;;0.80;;
8399;SDS011;4237;47.030;15.396;2022-09-09T01:01:04;2.20;;;0.87;;
8399;SDS011;4237;47.030;15.396;2022-09-09T01:06:15;2.17;;;1.10;;
8399;SDS011;4237;47.030;15.396;2022-09-09T01:11:23;1.67;;;0.90;;
8399;SDS011;4237;47.030;15.396;2022-09-09T01:13:55;1.93;;;1.10;;
8399;SDS011;4237;47.030;15.396;2022-09-09T01:16:22;0.90;;;0.83;;
8399;SDS011;4237;47.030;15.396;2022-09-09T01:18:51;1.00;;;0.90;;
8399;SDS011;4237;47.030;15.396;2022-09-09T01:21:28;3.37;;;1.40;;
8399;SDS011;4237;47.030;15.396;2022-09-09T01:24:13;1.00;;;0.87;;
8399;SDS011;4237;47.030;15.396;2022-09-09T01:26:42;1.80;;;1.13;;
8399;SDS011;4237;47.030;15.396;2022-09-09T01:29:16;1.57;;;0.80;;
8399;SDS011;4237;47.030;15.396;2022-09-09T01:31:41;3.90;;;0.97;;
8399;SDS011;4237;47.030;15.396;2022-09-09T01:34:15;3.17;;;1.10;;
8399;SDS011;4237;47.030;15.396;2022-09-09T01:37:14;4.10;;;1.03;;
8399;SDS011;4237;47.030;15.396;2022-09-09T01:39:15;4.53;;;1.30;;
8399;SDS011;4237;47.030;15.396;2022-09-09T01:41:43;4.63;;;0.90;;
8399;SDS011;4237;47.030;15.396;2022-09-09T01:44:11;4.77;;;1.20;;
8399;SDS011;4237;47.030;15.396;2022-09-09T01:46:40;4.10;;;1.07;;
8399;SDS011;4237;47.030;15.396;2022-09-09T01:49:08;4.73;;;1.40;;
8399;SDS011;4237;47.030;15.396;2022-09-09T01:51:36;2.80;;;1.20;;
8399;SDS011;4237;47.030;15.396;2022-09-09T01:54:06;2.33;;;1.30;;
8399;SDS011;4237;47.030;15.396;2022-09-09T01:56:43;1.47;;;1.10;;
8399;SDS011;4237;47.030;15.396;2022-09-09T02:04:47;1.13;;;1.00;;
8399;SDS011;4237;47.030;15.396;2022-09-09T02:07:33;5.93;;;1.17;;
8399;SDS011;4237;47.030;15.396;2022-09-09T02:10:05;3.23;;;1.20;;
8399;SDS011;4237;47.030;15.396;2022-09-09T02:12:29;1.37;;;1.10;;
8399;SDS011;4237;47.030;15.396;2022-09-09T02:15:02;1.63;;;1.10;;
8399;SDS011;4237;47.030;15.396;2022-09-09T02:17:32;3.23;;;1.17;;
8399;SDS011;4237;47.030;15.396;2022-09-09T02:20:12;1.00;;;1.00;;
8399;SDS011;4237;47.030;15.396;2022-09-09T02:22:37;3.57;;;1.00;;
8399;SDS011;4237;47.030;15.396;2022-09-09T02:25:07;2.07;;;1.00;;
8399;SDS011;4237;47.030;15.396;2022-09-09T02:27:36;2.67;;;1.17;;
8399;SDS011;4237;47.030;15.396;2022-09-09T02:30:04;3.57;;;1.67;;
8399;SDS011;4237;47.030;15.396;2022-09-09T02:32:33;2.53;;;1.40;;
8399;SDS011;4237;47.030;15.396;2022-09-09T02:35:04;1.97;;;1.33;;
8399;SDS011;4237;47.030;15.396;2022-09-09T02:37:34;4.67;;;1.83;;
8399;SDS011;4237;47.030;15.396;2022-09-09T02:40:06;1.50;;;1.40;;
8399;SDS011;4237;47.030;15.396;2022-09-09T02:42:38;10.20;;;1.77;;
8399;SDS011;4237;47.030;15.396;2022-09-09T02:45:08;5.57;;;1.70;;
8399;SDS011;4237;47.030;15.396;2022-09-09T02:47:46;3.93;;;1.53;;
8399;SDS011;4237;47.030;15.396;2022-09-09T02:50:22;3.23;;;1.30;;
8399;SDS011;4237;47.030;15.396;2022-09-09T02:57:55;5.67;;;2.00;;
8399;SDS011;4237;47.030;15.396;2022-09-09T03:00:25;10.43;;;2.37;;
8399;SDS011;4237;47.030;15.396;2022-09-09T03:02:54;6.57;;;2.30;;
8399;SDS011;4237;47.030;15.396;2022-09-09T03:05:23;5.90;;;2.10;;
8399;SDS011;4237;47.030;15.396;2022-09-09T03:07:52;3.83;;;2.00;;
8399;SDS011;4237;47.030;15.396;2022-09-09T03:10:20;5.93;;;2.13;;
8399;SDS011;4237;47.030;15.396;2022-09-09T03:12:49;9.80;;;2.37;;
8399;SDS011;4237;47.030;15.396;2022-09-09T03:15:17;2.80;;;1.87;;
8399;SDS011;4237;47.030;15.396;2022-09-09T03:17:46;7.17;;;2.07;;
8399;SDS011;4237;47.030;15.396;2022-09-09T03:20:14;6.97;;;2.07;;
8399;SDS011;4237;47.030;15.396;2022-09-09T03:22:42;4.60;;;2.07;;
8399;SDS011;4237;47.030;15.396;2022-09-09T03:25:12;8.30;;;2.30;;
8399;SDS011;4237;47.030;15.396;2022-09-09T03:27:40;5.40;;;2.10;;
8399;SDS011;4237;47.030;15.396;2022-09-09T03:30:08;4.27;;;1.90;;
8399;SDS011;4237;47.030;15.396;2022-09-09T03:32:36;7.10;;;2.23;;
8399;SDS011;4237;47.030;15.396;2022-09-09T03:35:05;4.67;;;1.80;;
8399;SDS011;4237;47.030;15.396;2022-09-09T03:37:33;2.47;;;1.77;;
8399;SDS011;4237;47.030;15.396;2022-09-09T03:40:01;9.03;;;2.00;;
8399;SDS011;4237;47.030;15.396;2022-09-09T03:42:29;5.53;;;1.63;;
8399;SDS011;4237;47.030;15.396;2022-09-09T03:44:58;4.13;;;1.93;;
8399;SDS011;4237;47.030;15.396;2022-09-09T03:47:27;5.23;;;1.90;;
8399;SDS011;4237;47.030;15.396;2022-09-09T03:49:56;4.13;;;2.03;;
8399;SDS011;4237;47.030;15.396;2022-09-09T03:52:24;4.37;;;1.90;;
8399;SDS011;4237;47.030;15.396;2022-09-09T03:54:53;3.70;;;1.90;;
8399;SDS011;4237;47.030;15.396;2022-09-09T03:57:22;3.43;;;1.80;;
8399;SDS011;4237;47.030;15.396;2022-09-09T03:59:50;6.70;;;1.90;;
8399;SDS011;4237;47.030;15.396;2022-09-09T04:02:19;4.80;;;2.13;;
8399;SDS011;4237;47.030;15.396;2022-09-09T04:04:48;7.50;;;2.07;;
8399;SDS011;4237;47.030;15.396;2022-09-09T04:07:16;5.87;;;1.97;;
8399;SDS011;4237;47.030;15.396;2022-09-09T04:09:46;4.27;;;1.77;;
8399;SDS011;4237;47.030;15.396;2022-09-09T04:12:14;8.30;;;2.13;;
8399;SDS011;4237;47.030;15.396;2022-09-09T04:14:44;2.57;;;1.90;;
8399;SDS011;4237;47.030;15.396;2022-09-09T04:17:12;8.03;;;2.43;;
8399;SDS011;4237;47.030;15.396;2022-09-09T04:19:41;6.53;;;2.07;;
8399;SDS011;4237;47.030;15.396;2022-09-09T04:22:09;2.77;;;2.10;;
8399;SDS011;4237;47.030;15.396;2022-09-09T04:24:37;8.87;;;2.20;;
8399;SDS011;4237;47.030;15.396;2022-09-09T04:27:05;2.57;;;2.10;;
8399;SDS011;4237;47.030;15.396;2022-09-09T04:29:34;6.57;;;2.33;;
8399;SDS011;4237;47.030;15.396;2022-09-09T04:32:02;5.30;;;2.43;;
8399;SDS011;4237;47.030;15.396;2022-09-09T04:34:31;7.13;;;2.00;;
8399;SDS011;4237;47.030;15.396;2022-09-09T04:37:00;3.60;;;2.23;;
8399;SDS011;4237;47.030;15.396;2022-09-09T04:39:28;7.13;;;2.37;;
8399;SDS011;4237;47.030;15.396;2022-09-09T04:41:56;5.27;;;2.33;;
8399;SDS011;4237;47.030;15.396;2022-09-09T04:44:24;2.90;;;2.30;;
8399;SDS011;4237;47.030;15.396;2022-09-09T04:46:53;7.53;;;2.63;;
8399;SDS011;4237;47.030;15.396;2022-09-09T04:49:21;6.13;;;2.57;;
8399;SDS011;4237;47.030;15.396;2022-09-09T04:51:49;4.90;;;2.40;;
8399;SDS011;4237;47.030;15.396;2022-09-09T04:54:17;7.50;;;2.40;;
8399;SDS011;4237;47.030;15.396;2022-09-09T04:56:46;8.67;;;2.60;;
8399;SDS011;4237;47.030;15.396;2022-09-09T04:59:14;9.90;;;2.47;;
8399;SDS011;4237;47.030;15.396;2022-09-09T05:01:42;7.70;;;2.60;;
8399;SDS011;4237;47.030;15.396;2022-09-09T05:04:10;3.77;;;2.40;;
8399;SDS011;4237;47.030;15.396;2022-09-09T05:06:38;5.53;;;2.53;;
8399;SDS011;4237;47.030;15.396;2022-09-09T05:09:07;3.77;;;2.53;;
8399;SDS011;4237;47.030;15.396;2022-09-09T05:11:35;2.50;;;2.30;;
8399;SDS011;4237;47.030;15.396;2022-09-09T05:14:06;6.87;;;3.10;;
8399;SDS011;4237;47.030;15.396;2022-09-09T05:16:34;5.00;;;2.43;;
8399;SDS011;4237;47.030;15.396;2022-09-09T05:19:02;5.37;;;2.13;;
8399;SDS011;4237;47.030;15.396;2022-09-09T05:21:30;4.77;;;1.90;;
8399;SDS011;4237;47.030;15.396;2022-09-09T05:23:59;4.03;;;2.20;;
8399;SDS011;4237;47.030;15.396;2022-09-09T05:26:29;5.90;;;2.20;;
8399;SDS011;4237;47.030;15.396;2022-09-09T05:28:57;4.07;;;2.00;;
8399;SDS011;4237;47.030;15.396;2022-09-09T05:31:29;2.47;;;1.70;;
8399;SDS011;4237;47.030;15.396;2022-09-09T05:33:57;5.93;;;2.30;;
8399;SDS011;4237;47.030;15.396;2022-09-09T05:36:26;2.73;;;1.40;;
8399;SDS011;4237;47.030;15.396;2022-09-09T05:38:54;2.93;;;1.50;;
8399;SDS011;4237;47.030;15.396;2022-09-09T05:41:23;7.83;;;1.93;;
8399;SDS011;4237;47.030;15.396;2022-09-09T05:43:51;2.47;;;1.40;;
8399;SDS011;4237;47.030;15.396;2022-09-09T05:46:20;7.87;;;1.93;;
8399;SDS011;4237;47.030;15.396;2022-09-09T05:48:49;5.47;;;1.80;;
8399;SDS011;4237;47.030;15.396;2022-09-09T05:51:19;9.60;;;1.80;;
8399;SDS011;4237;47.030;15.396;2022-09-09T05:53:49;4.43;;;2.00;;
8399;SDS011;4237;47.030;15.396;2022-09-09T05:56:19;4.60;;;1.50;;
8399;SDS011;4237;47.030;15.396;2022-09-09T05:58:49;2.17;;;1.80;;
8399;SDS011;4237;47.030;15.396;2022-09-09T06:01:18;3.07;;;1.87;;
8399;SDS011;4237;47.030;15.396;2022-09-09T06:03:47;3.27;;;1.60;;
8399;SDS011;4237;47.030;15.396;2022-09-09T06:06:16;4.87;;;2.27;;
8399;SDS011;4237;47.030;15.396;2022-09-09T06:08:45;8.33;;;2.53;;
8399;SDS011;4237;47.030;15.396;2022-09-09T06:11:14;5.90;;;2.67;;
8399;SDS011;4237;47.030;15.396;2022-09-09T06:13:43;5.03;;;2.50;;
8399;SDS011;4237;47.030;15.396;2022-09-09T06:16:12;9.70;;;2.93;;
8399;SDS011;4237;47.030;15.396;2022-09-09T06:18:41;5.63;;;2.93;;
8399;SDS011;4237;47.030;15.396;2022-09-09T06:21:17;9.13;;;2.90;;
8399;SDS011;4237;47.030;15.396;2022-09-09T06:23:46;9.10;;;2.80;;
8399;SDS011;4237;47.030;15.396;2022-09-09T06:26:16;11.83;;;3.00;;
8399;SDS011;4237;47.030;15.396;2022-09-09T06:28:48;2.53;;;1.93;;
8399;SDS011;4237;47.030;15.396;2022-09-09T06:31:17;10.37;;;2.53;;
8399;SDS011;4237;47.030;15.396;2022-09-09T06:33:48;6.57;;;2.67;;
8399;SDS011;4237;47.030;15.396;2022-09-09T06:36:18;9.10;;;2.37;;
8399;SDS011;4237;47.030;15.396;2022-09-09T06:38:46;5.13;;;2.17;;
8399;SDS011;4237;47.030;15.396;2022-09-09T06:41:16;4.27;;;1.90;;
8399;SDS011;4237;47.030;15.396;2022-09-09T06:43:46;7.50;;;2.27;;
8399;SDS011;4237;47.030;15.396;2022-09-09T06:46:15;4.50;;;2.00;;
8399;SDS011;4237;47.030;15.396;2022-09-09T06:48:44;2.10;;;1.73;;
8399;SDS011;4237;47.030;15.396;2022-09-09T06:51:18;5.20;;;2.10;;
8399;SDS011;4237;47.030;15.396;2022-09-09T06:53:43;2.97;;;1.63;;
8399;SDS011;4237;47.030;15.396;2022-09-09T06:56:19;6.77;;;2.33;;
8399;SDS011;4237;47.030;15.396;2022-09-09T06:58:49;3.23;;;2.20;;
8399;SDS011;4237;47.030;15.396;2022-09-09T07:01:20;4.57;;;3.10;;
8399;SDS011;4237;47.030;15.396;2022-09-09T07:03:49;6.60;;;2.97;;
8399;SDS011;4237;47.030;15.396;2022-09-09T07:06:19;5.50;;;2.53;;
8399;SDS011;4237;47.030;15.396;2022-09-09T07:08:51;7.83;;;2.60;;
8399;SDS011;4237;47.030;15.396;2022-09-09T07:11:20;3.67;;;2.57;;
8399;SDS011;4237;47.030;15.396;2022-09-09T07:13:48;4.57;;;2.37;;
8399;SDS011;4237;47.030;15.396;2022-09-09T07:16:18;2.50;;;2.07;;
8399;SDS011;4237;47.030;15.396;2022-09-09T07:18:47;5.10;;;2.50;;
8399;SDS011;4237;47.030;15.396;2022-09-09T07:21:16;3.20;;;2.27;;
8399;SDS011;4237;47.030;15.396;2022-09-09T07:23:44;5.67;;;2.10;;
8399;SDS011;4237;47.030;15.396;2022-09-09T07:26:14;2.47;;;2.10;;
8399;SDS011;4237;47.030;15.396;2022-09-09T07:28:42;6.50;;;2.50;;
8399;SDS011;4237;47.030;15.396;2022-09-09T07:31:20;4.93;;;2.30;;
8399;SDS011;4237;47.030;15.396;2022-09-09T07:33:44;3.07;;;2.13;;
8399;SDS011;4237;47.030;15.396;2022-09-09T07:36:13;6.90;;;2.37;;
8399;SDS011;4237;47.030;15.396;2022-09-09T07:38:42;6.07;;;2.37;;
8399;SDS011;4237;47.030;15.396;2022-09-09T07:41:15;5.03;;;2.30;;
8399;SDS011;4237;47.030;15.396;2022-09-09T07:43:44;10.47;;;2.40;;
8399;SDS011;4237;47.030;15.396;2022-09-09T07:46:13;4.50;;;2.10;;
8399;SDS011;4237;47.030;15.396;2022-09-09T07:48:48;4.50;;;2.13;;
8399;SDS011;4237;47.030;15.396;2022-09-09T07:51:13;6.70;;;2.37;;
8399;SDS011;4237;47.030;15.396;2022-09-09T07:53:43;3.90;;;2.33;;
8399;SDS011;4237;47.030;15.396;2022-09-09T07:56:12;3.97;;;2.00;;
8399;SDS011;4237;47.030;15.396;2022-09-09T07:58:40;4.70;;;2.30;;
8399;SDS011;4237;47.030;15.396;2022-09-09T08:01:13;5.37;;;2.13;;
8399;SDS011;4237;47.030;15.396;2022-09-09T08:03:41;3.80;;;2.10;;
8399;SDS011;4237;47.030;15.396;2022-09-09T08:06:11;5.80;;;2.07;;
8399;SDS011;4237;47.030;15.396;2022-09-09T08:08:41;5.40;;;1.97;;
8399;SDS011;4237;47.030;15.396;2022-09-09T08:11:13;10.67;;;2.07;;
8399;SDS011;4237;47.030;15.396;2022-09-09T08:13:43;3.00;;;2.10;;
8399;SDS011;4237;47.030;15.396;2022-09-09T08:16:13;3.73;;;1.87;;
8399;SDS011;4237;47.030;15.396;2022-09-09T08:18:41;8.57;;;2.67;;
8399;SDS011;4237;47.030;15.396;2022-09-09T08:21:11;4.90;;;2.20;;
8399;SDS011;4237;47.030;15.396;2022-09-09T08:23:40;3.13;;;2.00;;
8399;SDS011;4237;47.030;15.396;2022-09-09T08:26:13;4.93;;;2.20;;
8399;SDS011;4237;47.030;15.396;2022-09-09T08:28:42;5.03;;;2.07;;
8399;SDS011;4237;47.030;15.396;2022-09-09T08:31:12;3.57;;;2.07;;
8399;SDS011;4237;47.030;15.396;2022-09-09T08:33:41;7.93;;;2.83;;
8399;SDS011;4237;47.030;15.396;2022-09-09T08:36:34;4.67;;;2.43;;
8399;SDS011;4237;47.030;15.396;2022-09-09T08:39:05;10.73;;;2.50;;
8399;SDS011;4237;47.030;15.396;2022-09-09T08:50:08;4.93;;;2.33;;
8399;SDS011;4237;47.030;15.396;2022-09-09T08:52:39;4.13;;;2.17;;
8399;SDS011;4237;47.030;15.396;2022-09-09T08:55:13;5.53;;;2.50;;
8399;SDS011;4237;47.030;15.396;2022-09-09T08:57:39;5.13;;;2.40;;
8399;SDS011;4237;47.030;15.396;2022-09-09T09:00:09;6.90;;;2.30;;
8399;SDS011;4237;47.030;15.396;2022-09-09T09:02:42;10.80;;;2.53;;
8399;SDS011;4237;47.030;15.396;2022-09-09T09:13:15;5.10;;;2.10;;
8399;SDS011;4237;47.030;15.396;2022-09-09T09:15:44;6.47;;;2.20;;
8399;SDS011;4237;47.030;15.396;2022-09-09T09:18:13;6.70;;;2.10;;
8399;SDS011;4237;47.030;15.396;2022-09-09T09:21:07;1.60;;;1.50;;
8399;SDS011;4237;47.030;15.396;2022-09-09T09:23:15;3.37;;;1.90;;
8399;SDS011;4237;47.030;15.396;2022-09-09T09:25:42;5.03;;;1.90;;
8399;SDS011;4237;47.030;15.396;2022-09-09T09:28:19;3.20;;;1.90;;
8399;SDS011;4237;47.030;15.396;2022-09-09T09:30:54;3.73;;;1.87;;
8399;SDS011;4237;47.030;15.396;2022-09-09T09:33:27;6.60;;;2.00;;
8399;SDS011;4237;47.030;15.396;2022-09-09T09:35:51;8.93;;;2.27;;
8399;SDS011;4237;47.030;15.396;2022-09-09T09:38:21;3.80;;;1.77;;
8399;SDS011;4237;47.030;15.396;2022-09-09T09:40:52;3.22;;;1.70;;
8399;SDS011;4237;47.030;15.396;2022-09-09T09:43:23;2.67;;;1.20;;
8399;SDS011;4237;47.030;15.396;2022-09-09T09:45:51;2.22;;;1.60;;
8399;SDS011;4237;47.030;15.396;2022-09-09T09:48:19;5.13;;;1.70;;
8399;SDS011;4237;47.030;15.396;2022-09-09T09:53:27;5.42;;;1.40;;
8399;SDS011;4237;47.030;15.396;2022-09-09T09:58:26;2.17;;;1.50;;
8399;SDS011;4237;47.030;15.396;2022-09-09T10:00:55;2.60;;;1.40;;
8399;SDS011;4237;47.030;15.396;2022-09-09T10:03:28;3.72;;;1.67;;
8399;SDS011;4237;47.030;15.396;2022-09-09T10:05:57;2.77;;;1.47;;
8399;SDS011;4237;47.030;15.396;2022-09-09T10:08:25;3.75;;;1.47;;
8399;SDS011;4237;47.030;15.396;2022-09-09T10:13:42;2.95;;;1.60;;
8399;SDS011;4237;47.030;15.396;2022-09-09T10:19:08;1.92;;;1.42;;
8399;SDS011;4237;47.030;15.396;2022-09-09T10:21:34;1.22;;;1.00;;
8399;SDS011;4237;47.030;15.396;2022-09-09T10:24:17;3.42;;;1.27;;
8399;SDS011;4237;47.030;15.396;2022-09-09T10:31:52;2.08;;;1.20;;
8399;SDS011;4237;47.030;15.396;2022-09-09T10:37:07;3.00;;;1.30;;
8399;SDS011;4237;47.030;15.396;2022-09-09T10:39:38;3.27;;;1.32;;
8399;SDS011;4237;47.030;15.396;2022-09-09T10:42:12;5.40;;;1.12;;
8399;SDS011;4237;47.030;15.396;2022-09-09T10:44:56;4.25;;;1.37;;
8399;SDS011;4237;47.030;15.396;2022-09-09T10:47:24;1.30;;;1.17;;
8399;SDS011;4237;47.030;15.396;2022-09-09T10:52:57;2.65;;;1.60;;
8399;SDS011;4237;47.030;15.396;2022-09-09T10:55:23;1.85;;;1.30;;
8399;SDS011;4237;47.030;15.396;2022-09-09T10:57:55;2.33;;;1.10;;
8399;SDS011;4237;47.030;15.396;2022-09-09T11:00:51;1.10;;;1.00;;
8399;SDS011;4237;47.030;15.396;2022-09-09T11:03:21;1.87;;;1.10;;
8399;SDS011;4237;47.030;15.396;2022-09-09T11:05:50;1.13;;;1.03;;
8399;SDS011;4237;47.030;15.396;2022-09-09T11:08:21;1.40;;;1.00;;
8399;SDS011;4237;47.030;15.396;2022-09-09T11:10:52;3.67;;;1.10;;
8399;SDS011;4237;47.030;15.396;2022-09-09T11:16:28;2.03;;;1.13;;
8399;SDS011;4237;47.030;15.396;2022-09-09T11:18:57;2.80;;;1.30;;
8399;SDS011;4237;47.030;15.396;2022-09-09T11:21:27;2.30;;;1.27;;
8399;SDS011;4237;47.030;15.396;2022-09-09T11:24:01;2.30;;;0.80;;
8399;SDS011;4237;47.030;15.396;2022-09-09T11:26:36;2.23;;;1.10;;
8399;SDS011;4237;47.030;15.396;2022-09-09T11:29:09;2.60;;;1.00;;
8399;SDS011;4237;47.030;15.396;2022-09-09T11:39:44;3.50;;;0.90;;
8399;SDS011;4237;47.030;15.396;2022-09-09T11:44:44;1.00;;;0.80;;
8399;SDS011;4237;47.030;15.396;2022-09-09T11:47:32;2.03;;;0.63;;
8399;SDS011;4237;47.030;15.396;2022-09-09T11:49:46;1.33;;;0.73;;
8399;SDS011;4237;47.030;15.396;2022-09-09T11:52:34;0.90;;;0.80;;
8399;SDS011;4237;47.030;15.396;2022-09-09T11:54:55;1.10;;;0.67;;
8399;SDS011;4237;47.030;15.396;2022-09-09T11:57:34;1.83;;;0.90;;
8399;SDS011;4237;47.030;15.396;2022-09-09T12:00:03;1.70;;;0.60;;
8399;SDS011;4237;47.030;15.396;2022-09-09T12:02:31;1.00;;;0.70;;
8399;SDS011;4237;47.030;15.396;2022-09-09T12:07:38;2.37;;;0.90;;
8399;SDS011;4237;47.030;15.396;2022-09-09T12:10:19;0.90;;;0.83;;
8399;SDS011;4237;47.030;15.396;2022-09-09T12:12:36;0.90;;;0.73;;
8399;SDS011;4237;47.030;15.396;2022-09-09T12:17:41;1.80;;;0.70;;
8399;SDS011;4237;47.030;15.396;2022-09-09T12:33:37;2.13;;;0.60;;
8399;SDS011;4237;47.030;15.396;2022-09-09T12:36:14;3.13;;;0.80;;
8399;SDS011;4237;47.030;15.396;2022-09-09T12:38:43;1.10;;;0.77;;
8399;SDS011;4237;47.030;15.396;2022-09-09T12:41:24;2.57;;;0.93;;
8399;SDS011;4237;47.030;15.396;2022-09-09T12:44:08;0.83;;;0.67;;
8399;SDS011;4237;47.030;15.396;2022-09-09T12:46:34;1.83;;;0.90;;
8399;SDS011;4237;47.030;15.396;2022-09-09T12:49:03;3.90;;;0.90;;
8399;SDS011;4237;47.030;15.396;2022-09-09T12:51:33;2.30;;;0.50;;
8399;SDS011;4237;47.030;15.396;2022-09-09T12:54:02;0.80;;;0.70;;
8399;SDS011;4237;47.030;15.396;2022-09-09T12:56:31;1.37;;;0.90;;
8399;SDS011;4237;47.030;15.396;2022-09-09T12:59:00;1.83;;;1.00;;
8399;SDS011;4237;47.030;15.396;2022-09-09T13:01:29;2.13;;;1.00;;
8399;SDS011;4237;47.030;15.396;2022-09-09T13:03:58;1.37;;;1.00;;
8399;SDS011;4237;47.030;15.396;2022-09-09T13:06:27;3.70;;;1.33;;
8399;SDS011;4237;47.030;15.396;2022-09-09T13:08:57;1.37;;;1.00;;
8399;SDS011;4237;47.030;15.396;2022-09-09T13:11:39;1.47;;;1.00;;
8399;SDS011;4237;47.030;15.396;2022-09-09T13:13:58;2.57;;;0.90;;
8399;SDS011;4237;47.030;15.396;2022-09-09T13:16:28;2.30;;;1.13;;
8399;SDS011;4237;47.030;15.396;2022-09-09T13:19:01;1.70;;;1.17;;
8399;SDS011;4237;47.030;15.396;2022-09-09T13:21:38;0.90;;;0.90;;
8399;SDS011;4237;47.030;15.396;2022-09-09T13:24:05;2.80;;;1.37;;
8399;SDS011;4237;47.030;15.396;2022-09-09T13:26:34;1.10;;;0.77;;
8399;SDS011;4237;47.030;15.396;2022-09-09T13:29:18;2.00;;;1.30;;
8399;SDS011;4237;47.030;15.396;2022-09-09T13:31:47;1.10;;;1.00;;
8399;SDS011;4237;47.030;15.396;2022-09-09T13:34:31;1.90;;;1.20;;
8399;SDS011;4237;47.030;15.396;2022-09-09T13:37:00;2.13;;;1.03;;
8399;SDS011;4237;47.030;15.396;2022-09-09T13:39:29;2.07;;;1.30;;
8399;SDS011;4237;47.030;15.396;2022-09-09T13:41:58;1.13;;;1.00;;
8399;SDS011;4237;47.030;15.396;2022-09-09T13:44:27;2.23;;;1.30;;
8399;SDS011;4237;47.030;15.396;2022-09-09T13:47:06;4.10;;;1.10;;
8399;SDS011;4237;47.030;15.396;2022-09-09T13:49:35;2.10;;;1.20;;
8399;SDS011;4237;47.030;15.396;2022-09-09T13:52:04;1.63;;;1.00;;
8399;SDS011;4237;47.030;15.396;2022-09-09T13:54:36;4.50;;;1.60;;
8399;SDS011;4237;47.030;15.396;2022-09-09T13:57:04;2.00;;;1.57;;
8399;SDS011;4237;47.030;15.396;2022-09-09T13:59:32;5.40;;;1.30;;
8399;SDS011;4237;47.030;15.396;2022-09-09T14:02:01;5.43;;;1.40;;
8399;SDS011;4237;47.030;15.396;2022-09-09T14:04:29;3.50;;;1.20;;
8399;SDS011;4237;47.030;15.396;2022-09-09T14:06:58;2.53;;;1.27;;
8399;SDS011;4237;47.030;15.396;2022-09-09T14:09:26;1.63;;;1.40;;
8399;SDS011;4237;47.030;15.396;2022-09-09T14:11:54;5.33;;;1.43;;
8399;SDS011;4237;47.030;15.396;2022-09-09T14:14:23;2.07;;;1.67;;
8399;SDS011;4237;47.030;15.396;2022-09-09T14:16:52;1.77;;;1.30;;
8399;SDS011;4237;47.030;15.396;2022-09-09T14:19:20;3.37;;;1.57;;
8399;SDS011;4237;47.030;15.396;2022-09-09T14:21:48;2.93;;;1.60;;
8399;SDS011;4237;47.030;15.396;2022-09-09T14:24:17;2.77;;;1.80;;
8399;SDS011;4237;47.030;15.396;2022-09-09T14:26:46;4.07;;;2.13;;
8399;SDS011;4237;47.030;15.396;2022-09-09T14:29:15;3.57;;;1.90;;
8399;SDS011;4237;47.030;15.396;2022-09-09T14:31:43;3.57;;;1.97;;
8399;SDS011;4237;47.030;15.396;2022-09-09T14:34:11;2.83;;;1.87;;
8399;SDS011;4237;47.030;15.396;2022-09-09T14:36:41;5.13;;;1.97;;
8399;SDS011;4237;47.030;15.396;2022-09-09T14:39:09;2.90;;;1.90;;
8399;SDS011;4237;47.030;15.396;2022-09-09T14:41:37;1.93;;;1.83;;
8399;SDS011;4237;47.030;15.396;2022-09-09T14:44:05;4.00;;;2.57;;
8399;SDS011;4237;47.030;15.396;2022-09-09T14:46:34;2.20;;;1.87;;
8399;SDS011;4237;47.030;15.396;2022-09-09T14:49:02;4.10;;;2.00;;
8399;SDS011;4237;47.030;15.396;2022-09-09T14:51:31;2.70;;;2.00;;
8399;SDS011;4237;47.030;15.396;2022-09-09T14:53:59;2.33;;;2.00;;
8399;SDS011;4237;47.030;15.396;2022-09-09T14:56:30;3.87;;;1.97;;
8399;SDS011;4237;47.030;15.396;2022-09-09T14:58:58;2.63;;;2.00;;
8399;SDS011;4237;47.030;15.396;2022-09-09T15:01:29;2.97;;;1.87;;
8399;SDS011;4237;47.030;15.396;2022-09-09T15:03:58;2.83;;;2.00;;
8399;SDS011;4237;47.030;15.396;2022-09-09T15:06:27;2.20;;;2.00;;
8399;SDS011;4237;47.030;15.396;2022-09-09T15:08:56;4.10;;;2.10;;
8399;SDS011;4237;47.030;15.396;2022-09-09T15:11:28;3.57;;;1.77;;
8399;SDS011;4237;47.030;15.396;2022-09-09T15:13:57;2.93;;;2.10;;
8399;SDS011;4237;47.030;15.396;2022-09-09T15:16:26;2.03;;;1.90;;
8399;SDS011;4237;47.030;15.396;2022-09-09T15:18:58;2.40;;;1.80;;
8399;SDS011;4237;47.030;15.396;2022-09-09T15:21:27;1.60;;;1.50;;
8399;SDS011;4237;47.030;15.396;2022-09-09T15:23:56;1.87;;;1.40;;
8399;SDS011;4237;47.030;15.396;2022-09-09T15:26:25;2.97;;;1.60;;
8399;SDS011;4237;47.030;15.396;2022-09-09T15:28:54;1.73;;;1.60;;
8399;SDS011;4237;47.030;15.396;2022-09-09T15:31:23;1.87;;;1.40;;
8399;SDS011;4237;47.030;15.396;2022-09-09T15:33:55;2.13;;;1.40;;
8399;SDS011;4237;47.030;15.396;2022-09-09T15:36:26;2.30;;;1.50;;
8399;SDS011;4237;47.030;15.396;2022-09-09T15:38:56;2.87;;;1.23;;
8399;SDS011;4237;47.030;15.396;2022-09-09T15:41:24;1.70;;;1.20;;
8399;SDS011;4237;47.030;15.396;2022-09-09T15:43:53;1.27;;;1.07;;
8399;SDS011;4237;47.030;15.396;2022-09-09T15:46:25;3.07;;;1.20;;
8399;SDS011;4237;47.030;15.396;2022-09-09T15:48:55;1.77;;;1.33;;
8399;SDS011;4237;47.030;15.396;2022-09-09T15:51:24;1.37;;;1.27;;
8399;SDS011;4237;47.030;15.396;2022-09-09T15:53:56;1.50;;;1.10;;
8399;SDS011;4237;47.030;15.396;2022-09-09T15:56:25;2.63;;;1.70;;
8399;SDS011;4237;47.030;15.396;2022-09-09T15:58:55;2.13;;;1.37;;
8399;SDS011;4237;47.030;15.396;2022-09-09T16:01:24;1.50;;;1.10;;
8399;SDS011;4237;47.030;15.396;2022-09-09T16:03:53;2.10;;;1.20;;
8399;SDS011;4237;47.030;15.396;2022-09-09T16:06:23;3.00;;;1.10;;
8399;SDS011;4237;47.030;15.396;2022-09-09T16:08:52;2.20;;;1.10;;
8399;SDS011;4237;47.030;15.396;2022-09-09T16:13:51;1.50;;;1.17;;
8399;SDS011;4237;47.030;15.396;2022-09-09T16:16:20;1.13;;;1.00;;
8399;SDS011;4237;47.030;15.396;2022-09-09T16:18:53;3.50;;;1.40;;
8399;SDS011;4237;47.030;15.396;2022-09-09T16:21:26;3.00;;;1.17;;
8399;SDS011;4237;47.030;15.396;2022-09-09T16:23:57;3.43;;;1.30;;
8399;SDS011;4237;47.030;15.396;2022-09-09T16:26:26;2.40;;;1.00;;
8399;SDS011;4237;47.030;15.396;2022-09-09T16:28:55;2.10;;;1.10;;
8399;SDS011;4237;47.030;15.396;2022-09-09T16:31:26;1.30;;;1.20;;
8399;SDS011;4237;47.030;15.396;2022-09-09T16:33:54;1.37;;;1.10;;
8399;SDS011;4237;47.030;15.396;2022-09-09T16:36:24;3.63;;;1.33;;
8399;SDS011;4237;47.030;15.396;2022-09-09T16:38:54;2.33;;;1.10;;
8399;SDS011;4237;47.030;15.396;2022-09-09T16:41:25;0.90;;;0.90;;
8399;SDS011;4237;47.030;15.396;2022-09-09T16:43:55;1.43;;;1.20;;
8399;SDS011;4237;47.030;15.396;2022-09-09T16:46:24;1.77;;;1.13;;
8399;SDS011;4237;47.030;15.396;2022-09-09T16:49:00;2.30;;;1.40;;